Time;durP1;ratioP1;P1;durP2;ratioP2;P2;SDS_P1;SDS_P2;PMS_P1;PMS_P2;Temp;Humidity;BMP_temperature;BMP_pressure;BME280_temperature;BME280_humidity;BME280_pressure;Samples;Min_cycle;Max_cycle;Signal;HPM_P1;HPM_P2
2023/01/21 00:02:04;;;;;;;;;;;4.40;99.90;;;;;;5066344;28;20239;-64
2023/01/21 00:04:29;;;;;;;;;;;4.40;99.90;;;;;;5078060;28;20006;-65
2023/01/21 00:06:56;;;;;;;;;;;4.40;99.90;;;;;;5101287;28;20092;-67
2023/01/21 00:09:21;;;;;;;;;;;4.40;99.90;;;;;;5095173;28;19916;-66
2023/01/21 00:11:47;;;;;;;;;;;4.40;99.90;;;;;;5089342;28;19976;-67
2023/01/21 00:14:12;;;;;;;;;;;4.40;99.90;;;;;;5094221;28;20370;-66
2023/01/21 00:16:38;;;;;;;;;;;4.50;99.90;;;;;;5076495;28;19991;-65
2023/01/21 00:19:03;;;;;;;;;;;4.50;99.90;;;;;;5061664;28;19912;-65
2023/01/21 00:21:29;;;;;;;;;;;4.50;99.90;;;;;;5073419;28;19912;-65
2023/01/21 00:23:54;;;;;;;;;;;4.40;99.90;;;;;;5076072;28;20369;-64
2023/01/21 00:26:20;;;;;;;;;;;4.50;99.90;;;;;;5090702;28;19924;-65
2023/01/21 00:28:46;;;;;;;;;;;4.40;99.90;;;;;;5096577;28;19923;-66
2023/01/21 00:31:12;;;;;;;;;;;4.50;99.90;;;;;;5101733;28;20372;-66
2023/01/21 00:33:37;;;;;;;;;;;4.50;99.90;;;;;;5097023;28;19911;-65
2023/01/21 00:36:05;;;;;;;;;;;4.50;99.90;;;;;;5058985;28;20344;-65
2023/01/21 00:38:31;;;;;;;;;;;4.50;99.90;;;;;;5089987;28;19985;-63
2023/01/21 00:41:07;;;;;;;;;;;4.50;99.90;;;;;;5090683;28;19998;-66
2023/01/21 00:43:32;;;;;;;;;;;4.50;99.90;;;;;;5088860;28;19958;-65
2023/01/21 00:45:58;;;;;;;;;;;4.50;99.90;;;;;;5067018;28;19947;-66
2023/01/21 00:48:24;;;;;;;;;;;4.50;99.90;;;;;;5070647;28;19928;-66
2023/01/21 00:50:50;;;;;;;;;;;4.50;99.90;;;;;;5074063;28;19966;-66
2023/01/21 00:53:16;;;;;;;;;;;4.40;99.90;;;;;;5061390;28;20467;-66
2023/01/21 00:55:42;;;;;;;;;;;4.40;99.90;;;;;;5070156;28;20365;-66
2023/01/21 00:58:08;;;;;;;;;;;4.40;99.90;;;;;;5071205;28;19912;-65
2023/01/21 01:00:33;;;;;;;;;;;4.40;99.90;;;;;;5071659;28;19932;-65
2023/01/21 01:02:59;;;;;;;;;;;4.40;99.90;;;;;;5080238;28;20278;-65
2023/01/21 01:05:24;;;;;;;;;;;4.40;99.90;;;;;;5082665;28;20002;-65
2023/01/21 01:07:50;;;;;;;;;;;4.40;99.90;;;;;;5097140;28;19916;-65
2023/01/21 01:10:16;;;;;;;;;;;4.40;99.90;;;;;;5093007;28;19927;-64
2023/01/21 01:12:42;;;;;;;;;;;4.40;99.90;;;;;;5080909;28;19919;-66
2023/01/21 01:15:08;;;;;;;;;;;4.40;99.90;;;;;;5102202;28;19923;-66
2023/01/21 01:17:34;;;;;;;;;;;4.30;99.90;;;;;;5077522;28;20381;-66
2023/01/21 01:20:03;;;;;;;;;;;4.30;99.90;;;;;;5079945;28;20154;-66
2023/01/21 01:22:28;;;;;;;;;;;4.40;99.90;;;;;;5081039;28;20441;-64
2023/01/21 01:24:54;;;;;;;;;;;4.40;99.90;;;;;;5091395;28;20002;-64
2023/01/21 01:27:19;;;;;;;;;;;4.30;99.90;;;;;;5070564;28;20007;-65
2023/01/21 01:29:45;;;;;;;;;;;4.30;99.90;;;;;;5093717;28;20030;-65
2023/01/21 01:32:10;;;;;;;;;;;4.30;99.90;;;;;;5066462;28;20533;-64
2023/01/21 01:34:37;;;;;;;;;;;4.30;99.90;;;;;;5058439;28;19913;-65
2023/01/21 01:37:03;;;;;;;;;;;4.30;99.90;;;;;;5066895;28;19981;-65
2023/01/21 01:39:28;;;;;;;;;;;4.30;99.90;;;;;;5063486;28;20366;-65
2023/01/21 01:41:54;;;;;;;;;;;4.40;99.90;;;;;;5087881;28;20049;-65
2023/01/21 01:44:38;;;;;;;;;;;4.40;99.90;;;;;;5087564;28;20439;-64
2023/01/21 01:47:04;;;;;;;;;;;4.40;99.90;;;;;;5084556;28;20011;-65
2023/01/21 01:49:30;;;;;;;;;;;4.40;99.90;;;;;;5096295;28;20018;-64
2023/01/21 01:51:58;;;;;;;;;;;4.40;99.90;;;;;;5075629;28;19916;-63
2023/01/21 01:54:27;;;;;;;;;;;4.40;99.90;;;;;;5099381;28;19912;-64
2023/01/21 01:56:55;;;;;;;;;;;4.40;99.90;;;;;;5099289;28;20007;-66
2023/01/21 01:59:21;;;;;;;;;;;4.40;99.90;;;;;;5072161;28;19921;-64
2023/01/21 02:01:47;;;;;;;;;;;4.40;99.90;;;;;;5107990;28;19932;-65
2023/01/21 02:04:15;;;;;;;;;;;4.40;99.90;;;;;;5093677;28;19919;-64
2023/01/21 02:06:41;;;;;;;;;;;4.40;99.90;;;;;;5100326;28;19915;-64
2023/01/21 02:09:07;;;;;;;;;;;4.40;99.90;;;;;;5087386;28;19978;-65
2023/01/21 02:11:34;;;;;;;;;;;4.40;99.90;;;;;;5076967;28;20546;-65
2023/01/21 02:13:59;;;;;;;;;;;4.40;99.90;;;;;;5086677;28;19912;-65
2023/01/21 02:16:28;;;;;;;;;;;4.40;99.90;;;;;;5095769;28;19920;-64
2023/01/21 02:18:56;;;;;;;;;;;4.40;99.90;;;;;;5102001;28;20429;-66
2023/01/21 02:21:40;;;;;;;;;;;4.40;99.90;;;;;;5084706;28;19912;-64
2023/01/21 02:24:08;;;;;;;;;;;4.40;99.90;;;;;;5069264;28;20071;-65
2023/01/21 02:26:37;;;;;;;;;;;4.40;99.90;;;;;;5107523;28;20262;-63
2023/01/21 02:29:15;;;;;;;;;;;4.30;99.90;;;;;;5069006;28;20389;-63
2023/01/21 02:31:59;;;;;;;;;;;4.30;99.90;;;;;;5085288;28;19935;-65
2023/01/21 02:34:28;;;;;;;;;;;4.30;99.90;;;;;;5076270;28;20408;-66
2023/01/21 02:36:59;;;;;;;;;;;4.30;99.90;;;;;;5069305;28;19916;-64
2023/01/21 02:39:32;;;;;;;;;;;4.30;99.90;;;;;;5095528;28;20281;-65
2023/01/21 02:42:12;;;;;;;;;;;4.30;99.90;;;;;;5083815;28;20289;-65
2023/01/21 02:44:37;;;;;;;;;;;4.30;99.90;;;;;;5089113;28;19972;-65
2023/01/21 02:47:14;;;;;;;;;;;4.30;99.90;;;;;;5092742;28;19920;-65
2023/01/21 02:49:43;;;;;;;;;;;4.30;99.90;;;;;;5083853;28;19927;-63
2023/01/21 02:52:15;;;;;;;;;;;4.30;99.90;;;;;;5073283;28;19912;-64
2023/01/21 02:54:41;;;;;;;;;;;4.30;99.90;;;;;;5088999;28;19917;-64
2023/01/21 02:57:08;;;;;;;;;;;4.30;99.90;;;;;;5106323;28;19930;-64
2023/01/21 02:59:34;;;;;;;;;;;4.30;99.90;;;;;;5101469;28;19911;-65
2023/01/21 03:02:11;;;;;;;;;;;4.30;99.90;;;;;;5095558;28;19912;-65
2023/01/21 03:04:48;;;;;;;;;;;4.20;99.90;;;;;;5095340;28;19957;-65
2023/01/21 03:07:19;;;;;;;;;;;4.20;99.90;;;;;;5092058;28;20281;-65
2023/01/21 03:09:44;;;;;;;;;;;4.20;99.90;;;;;;5070098;28;19916;-64
2023/01/21 03:12:22;;;;;;;;;;;4.30;99.90;;;;;;5091758;28;19920;-64
2023/01/21 03:17:50;;;;;;;;;;;4.20;99.90;;;;;;5094909;28;19972;-64
2023/01/21 03:20:23;;;;;;;;;;;4.30;99.90;;;;;;5095816;28;19963;-65
2023/01/21 03:22:50;;;;;;;;;;;4.20;99.90;;;;;;5091536;28;20007;-63
2023/01/21 03:25:16;;;;;;;;;;;4.30;99.90;;;;;;5088766;28;20002;-64
2023/01/21 03:27:43;;;;;;;;;;;4.20;99.90;;;;;;5094584;28;19951;-63
2023/01/21 03:30:12;;;;;;;;;;;4.30;99.90;;;;;;5075401;28;19916;-64
2023/01/21 03:32:39;;;;;;;;;;;4.30;99.90;;;;;;5093479;28;19920;-66
2023/01/21 03:35:05;;;;;;;;;;;4.30;99.90;;;;;;5068346;28;19916;-64
2023/01/21 03:37:40;;;;;;;;;;;4.20;99.90;;;;;;5093180;28;20323;-63
2023/01/21 03:40:17;;;;;;;;;;;4.20;99.90;;;;;;5067936;28;20297;-65
2023/01/21 03:42:44;;;;;;;;;;;4.20;99.90;;;;;;5088824;28;19921;-65
2023/01/21 03:45:10;;;;;;;;;;;4.20;99.90;;;;;;5090385;28;20235;-65
2023/01/21 03:47:37;;;;;;;;;;;4.20;99.90;;;;;;5104030;28;19937;-65
2023/01/21 03:50:05;;;;;;;;;;;4.20;99.90;;;;;;5093013;28;19939;-64
2023/01/21 03:52:31;;;;;;;;;;;4.20;99.90;;;;;;5057664;28;19970;-63
2023/01/21 03:54:57;;;;;;;;;;;4.20;99.90;;;;;;5081905;28;19912;-64
2023/01/21 03:57:23;;;;;;;;;;;4.20;99.90;;;;;;5063421;28;20003;-65
2023/01/21 03:59:48;;;;;;;;;;;4.20;99.90;;;;;;5079839;28;19916;-64
2023/01/21 04:02:18;;;;;;;;;;;4.20;99.90;;;;;;5075864;28;19947;-64
2023/01/21 04:04:47;;;;;;;;;;;4.20;99.90;;;;;;5094330;28;19964;-64
2023/01/21 04:07:16;;;;;;;;;;;4.20;99.90;;;;;;5083368;28;19930;-65
2023/01/21 04:09:41;;;;;;;;;;;4.20;99.90;;;;;;5070847;28;19980;-63
2023/01/21 04:12:07;;;;;;;;;;;4.20;99.90;;;;;;5083894;28;20425;-65
2023/01/21 04:14:33;;;;;;;;;;;4.20;99.90;;;;;;5084292;28;19912;-65
2023/01/21 04:16:58;;;;;;;;;;;4.30;99.90;;;;;;5096278;28;20524;-64
2023/01/21 04:19:24;;;;;;;;;;;4.30;99.90;;;;;;5097296;28;20282;-64
2023/01/21 04:21:49;;;;;;;;;;;4.20;99.90;;;;;;5083278;28;19909;-65
2023/01/21 04:24:15;;;;;;;;;;;4.20;99.90;;;;;;5066277;28;19917;-66
2023/01/21 04:26:41;;;;;;;;;;;4.20;99.90;;;;;;5095251;28;20014;-65
2023/01/21 04:29:06;;;;;;;;;;;4.20;99.90;;;;;;5094349;28;19923;-65
2023/01/21 04:31:32;;;;;;;;;;;4.20;99.90;;;;;;5105054;28;19920;-65
2023/01/21 04:33:57;;;;;;;;;;;4.20;99.90;;;;;;5080452;28;19911;-65
2023/01/21 04:36:23;;;;;;;;;;;4.20;99.90;;;;;;5078692;28;20006;-64
2023/01/21 04:38:49;;;;;;;;;;;4.20;99.90;;;;;;5091886;28;19916;-65
2023/01/21 04:41:14;;;;;;;;;;;4.20;99.90;;;;;;5090194;28;19912;-64
2023/01/21 04:43:40;;;;;;;;;;;4.10;99.90;;;;;;5085148;28;20004;-63
2023/01/21 04:46:05;;;;;;;;;;;4.10;99.90;;;;;;5089148;28;19916;-65
2023/01/21 04:48:32;;;;;;;;;;;4.10;99.90;;;;;;5070051;28;19920;-65
2023/01/21 04:50:57;;;;;;;;;;;4.00;99.90;;;;;;5084297;28;20007;-65
2023/01/21 04:53:23;;;;;;;;;;;4.00;99.90;;;;;;5074384;28;19961;-66
2023/01/21 04:55:57;;;;;;;;;;;4.10;99.90;;;;;;5088750;28;19916;-66
2023/01/21 04:58:23;;;;;;;;;;;4.10;99.90;;;;;;5063844;28;19909;-66
2023/01/21 05:00:49;;;;;;;;;;;4.10;99.90;;;;;;5092754;28;19916;-64
2023/01/21 05:03:14;;;;;;;;;;;4.10;99.90;;;;;;5086002;28;19913;-64
2023/01/21 05:05:40;;;;;;;;;;;4.10;99.90;;;;;;5074317;28;19912;-64
2023/01/21 05:08:05;;;;;;;;;;;4.00;99.90;;;;;;5077272;28;19927;-64
2023/01/21 05:10:33;;;;;;;;;;;4.10;99.90;;;;;;5085652;28;20346;-63
2023/01/21 05:12:58;;;;;;;;;;;4.00;99.90;;;;;;5098028;28;20007;-66
2023/01/21 05:15:24;;;;;;;;;;;4.00;99.90;;;;;;5069617;28;19986;-64
2023/01/21 05:17:50;;;;;;;;;;;4.10;99.90;;;;;;5086747;28;19912;-63
2023/01/21 05:20:15;;;;;;;;;;;4.10;99.90;;;;;;5083344;28;19917;-64
2023/01/21 05:22:49;;;;;;;;;;;4.10;99.90;;;;;;5094212;28;19912;-64
2023/01/21 05:25:15;;;;;;;;;;;4.00;99.90;;;;;;5083577;28;19959;-66
2023/01/21 05:27:41;;;;;;;;;;;4.00;99.90;;;;;;5102590;28;19912;-63
2023/01/21 05:30:07;;;;;;;;;;;4.00;99.90;;;;;;5085533;28;19924;-65
2023/01/21 05:32:35;;;;;;;;;;;4.00;99.90;;;;;;5079699;28;20360;-65
2023/01/21 05:35:02;;;;;;;;;;;4.00;99.90;;;;;;5084298;28;20010;-64
2023/01/21 05:37:28;;;;;;;;;;;4.10;99.90;;;;;;5103918;28;19931;-65
2023/01/21 05:39:53;;;;;;;;;;;4.00;99.90;;;;;;5084546;28;19913;-63
2023/01/21 05:42:19;;;;;;;;;;;4.00;99.90;;;;;;5096826;28;20227;-64
2023/01/21 05:44:44;;;;;;;;;;;4.00;99.90;;;;;;5075460;28;19916;-65
2023/01/21 05:47:10;;;;;;;;;;;4.00;99.90;;;;;;5076797;28;19916;-64
2023/01/21 05:49:36;;;;;;;;;;;4.00;99.90;;;;;;5065670;28;20438;-64
2023/01/21 05:52:01;;;;;;;;;;;4.00;99.90;;;;;;5088082;28;19924;-65
2023/01/21 05:54:27;;;;;;;;;;;4.00;99.90;;;;;;5093365;28;20253;-65
2023/01/21 05:56:52;;;;;;;;;;;4.00;99.90;;;;;;5074186;28;20393;-64
2023/01/21 05:59:18;;;;;;;;;;;4.00;99.90;;;;;;5096415;28;20008;-65
2023/01/21 06:01:43;;;;;;;;;;;4.00;99.90;;;;;;5082783;28;19938;-64
2023/01/21 06:04:09;;;;;;;;;;;4.10;99.90;;;;;;5087259;28;19922;-65
2023/01/21 06:06:35;;;;;;;;;;;4.10;99.90;;;;;;5071443;28;19916;-66
2023/01/21 06:09:00;;;;;;;;;;;4.10;99.90;;;;;;5084360;28;19911;-67
2023/01/21 06:11:26;;;;;;;;;;;4.10;99.90;;;;;;5088355;28;19912;-63
2023/01/21 06:13:51;;;;;;;;;;;4.20;99.90;;;;;;5061552;28;19913;-66
2023/01/21 06:16:17;;;;;;;;;;;4.20;99.90;;;;;;5098211;28;19907;-64
2023/01/21 06:18:42;;;;;;;;;;;4.20;99.90;;;;;;5094788;28;19998;-64
2023/01/21 06:21:08;;;;;;;;;;;4.30;99.90;;;;;;5087611;28;20281;-64
2023/01/21 06:23:34;;;;;;;;;;;4.30;99.90;;;;;;5096510;28;19923;-63
2023/01/21 06:26:01;;;;;;;;;;;4.30;99.90;;;;;;5071031;28;19966;-64
2023/01/21 06:28:26;;;;;;;;;;;4.30;99.90;;;;;;5089399;28;19943;-64
2023/01/21 06:30:52;;;;;;;;;;;4.30;99.90;;;;;;5090870;28;19965;-64
2023/01/21 06:33:18;;;;;;;;;;;4.30;99.90;;;;;;5097345;28;19954;-65
2023/01/21 06:35:43;;;;;;;;;;;4.30;99.90;;;;;;5073758;28;19912;-65
2023/01/21 06:38:09;;;;;;;;;;;4.40;99.90;;;;;;5079770;28;19924;-63
2023/01/21 06:40:34;;;;;;;;;;;4.40;99.90;;;;;;5093037;28;20068;-64
2023/01/21 06:43:00;;;;;;;;;;;4.40;99.90;;;;;;5086828;28;19911;-63
2023/01/21 06:45:26;;;;;;;;;;;4.40;99.90;;;;;;5084353;28;19916;-65
2023/01/21 06:47:51;;;;;;;;;;;4.40;99.90;;;;;;5104075;28;20002;-65
2023/01/21 06:50:17;;;;;;;;;;;4.40;99.90;;;;;;5102229;28;20397;-65
2023/01/21 06:52:44;;;;;;;;;;;4.40;99.90;;;;;;5070057;28;19923;-65
2023/01/21 06:55:10;;;;;;;;;;;4.40;99.90;;;;;;5094294;28;19920;-65
2023/01/21 06:57:36;;;;;;;;;;;4.40;99.90;;;;;;5081026;28;20353;-65
2023/01/21 07:00:03;;;;;;;;;;;4.40;99.90;;;;;;5098388;28;20013;-66
2023/01/21 07:02:29;;;;;;;;;;;4.40;99.90;;;;;;5069149;28;19912;-65
2023/01/21 07:04:55;;;;;;;;;;;4.40;99.90;;;;;;5096154;28;19912;-65
2023/01/21 07:07:20;;;;;;;;;;;4.40;99.90;;;;;;5084316;28;19916;-66
2023/01/21 07:09:46;;;;;;;;;;;4.40;99.90;;;;;;5090074;28;20353;-64
2023/01/21 07:12:12;;;;;;;;;;;4.40;99.90;;;;;;5087797;28;19975;-68
2023/01/21 07:14:37;;;;;;;;;;;4.40;99.90;;;;;;5072965;28;19934;-65
2023/01/21 07:17:03;;;;;;;;;;;4.40;99.90;;;;;;5091998;28;20362;-64
2023/01/21 07:19:28;;;;;;;;;;;4.40;99.90;;;;;;5066031;28;19912;-66
2023/01/21 07:21:54;;;;;;;;;;;4.50;99.90;;;;;;5096808;28;20447;-64
2023/01/21 07:24:20;;;;;;;;;;;4.50;99.90;;;;;;5090621;28;19923;-64
2023/01/21 07:26:46;;;;;;;;;;;4.50;99.90;;;;;;5099553;28;19915;-64
2023/01/21 07:29:11;;;;;;;;;;;4.50;99.90;;;;;;5093626;28;20445;-66
2023/01/21 07:31:37;;;;;;;;;;;4.50;99.90;;;;;;5101648;28;20003;-66
2023/01/21 07:34:03;;;;;;;;;;;4.50;99.90;;;;;;5090651;28;19919;-66
2023/01/21 07:36:37;;;;;;;;;;;4.50;99.90;;;;;;5079545;28;20069;-66
2023/01/21 07:39:18;;;;;;;;;;;4.50;99.90;;;;;;5085178;28;20391;-65
2023/01/21 07:41:45;;;;;;;;;;;4.50;99.90;;;;;;5071312;28;19946;-65
2023/01/21 07:44:24;;;;;;;;;;;4.50;99.90;;;;;;5070571;28;19912;-66
2023/01/21 07:46:55;;;;;;;;;;;4.50;99.90;;;;;;5071417;28;20062;-67
2023/01/21 07:49:25;;;;;;;;;;;4.50;99.90;;;;;;5089118;28;19916;-67
2023/01/21 07:51:55;;;;;;;;;;;4.50;99.90;;;;;;5096990;28;20574;-66
2023/01/21 07:54:20;;;;;;;;;;;4.50;99.90;;;;;;5107148;28;19911;-64
2023/01/21 07:56:46;;;;;;;;;;;4.60;99.90;;;;;;5088827;28;19922;-65
2023/01/21 07:59:12;;;;;;;;;;;4.60;99.90;;;;;;5069916;28;19919;-65
2023/01/21 08:01:38;;;;;;;;;;;4.60;99.90;;;;;;5089614;28;19912;-65
2023/01/21 08:04:05;;;;;;;;;;;4.50;99.90;;;;;;5087784;28;19919;-66
2023/01/21 08:06:31;;;;;;;;;;;4.50;99.90;;;;;;5100583;28;19947;-66
2023/01/21 08:08:57;;;;;;;;;;;4.50;99.90;;;;;;5071507;28;19952;-65
2023/01/21 08:11:22;;;;;;;;;;;4.50;99.90;;;;;;5065859;28;19912;-60
2023/01/21 08:13:49;;;;;;;;;;;4.50;99.90;;;;;;5064355;28;19923;-59
2023/01/21 08:16:20;;;;;;;;;;;4.50;99.90;;;;;;5086647;28;19908;-65
2023/01/21 08:18:47;;;;;;;;;;;4.50;99.90;;;;;;5079125;28;20306;-62
2023/01/21 08:21:13;;;;;;;;;;;4.60;99.90;;;;;;5091624;28;19912;-61
2023/01/21 08:23:42;;;;;;;;;;;4.50;99.90;;;;;;5074059;28;19912;-61
2023/01/21 08:26:10;;;;;;;;;;;4.50;99.90;;;;;;5101127;28;19912;-58
2023/01/21 08:28:41;;;;;;;;;;;4.50;99.90;;;;;;5065864;28;19939;-58
2023/01/21 08:31:10;;;;;;;;;;;4.60;99.90;;;;;;5069933;28;19921;-62
2023/01/21 08:33:36;;;;;;;;;;;4.50;99.90;;;;;;5051245;28;20362;-61
2023/01/21 08:36:05;;;;;;;;;;;4.50;99.90;;;;;;5062847;28;19916;-57
2023/01/21 08:38:31;;;;;;;;;;;4.50;99.90;;;;;;5071485;28;20377;-61
2023/01/21 08:40:58;;;;;;;;;;;4.50;99.90;;;;;;5095450;28;19979;-58
2023/01/21 08:43:24;;;;;;;;;;;4.50;99.90;;;;;;5072244;28;19916;-62
2023/01/21 08:45:50;;;;;;;;;;;4.50;99.90;;;;;;5100531;28;19956;-62
2023/01/21 08:48:17;;;;;;;;;;;4.50;99.90;;;;;;5071064;28;20018;-60
2023/01/21 08:50:49;;;;;;;;;;;4.60;99.90;;;;;;5068061;28;19920;-59
2023/01/21 08:53:19;;;;;;;;;;;4.60;99.90;;;;;;5064493;28;19909;-60
2023/01/21 08:55:47;;;;;;;;;;;4.60;99.90;;;;;;5080583;28;19916;-60
2023/01/21 08:58:16;;;;;;;;;;;4.60;99.90;;;;;;5085565;28;20057;-60
2023/01/21 09:00:43;;;;;;;;;;;4.60;99.90;;;;;;5074732;28;20038;-60
2023/01/21 09:03:12;;;;;;;;;;;4.60;99.90;;;;;;5080020;28;19919;-58
2023/01/21 09:05:38;;;;;;;;;;;4.60;99.90;;;;;;5067730;28;19913;-63
2023/01/21 09:08:04;;;;;;;;;;;4.50;99.90;;;;;;5067942;28;20011;-61
2023/01/21 09:13:36;;;;;;;;;;;4.60;99.90;;;;;;5030892;28;19973;-61
2023/01/21 09:16:06;;;;;;;;;;;4.50;99.90;;;;;;5066769;28;20015;-62
2023/01/21 09:18:31;;;;;;;;;;;4.50;99.90;;;;;;5069973;28;19957;-62
2023/01/21 09:21:01;;;;;;;;;;;4.60;99.90;;;;;;5065058;28;20352;-61
2023/01/21 09:23:27;;;;;;;;;;;4.60;99.90;;;;;;5071481;28;20313;-62
2023/01/21 09:25:55;;;;;;;;;;;4.60;99.90;;;;;;5070213;28;19913;-63
2023/01/21 09:28:21;;;;;;;;;;;4.60;99.90;;;;;;5082066;28;19940;-61
2023/01/21 09:30:47;;;;;;;;;;;4.60;99.90;;;;;;5063798;28;19916;-62
2023/01/21 09:33:36;;;;;;;;;;;4.60;99.90;;;;;;5087926;28;19912;-61
2023/01/21 09:36:10;;;;;;;;;;;4.60;99.90;;;;;;5079722;28;19915;-62
2023/01/21 09:38:39;;;;;;;;;;;4.60;99.90;;;;;;5061135;28;19979;-60
2023/01/21 09:41:20;;;;;;;;;;;4.70;99.90;;;;;;5079726;28;19947;-62
2023/01/21 09:43:56;;;;;;;;;;;4.70;99.90;;;;;;5078040;28;19948;-62
2023/01/21 09:46:35;;;;;;;;;;;4.80;99.90;;;;;;5080869;28;19927;-60
2023/01/21 09:49:05;;;;;;;;;;;4.80;99.90;;;;;;5085522;28;19975;-58
2023/01/21 09:51:38;;;;;;;;;;;4.80;99.90;;;;;;5070742;28;20010;-62
2023/01/21 09:54:07;;;;;;;;;;;4.80;99.90;;;;;;5074081;28;19913;-59
2023/01/21 09:56:38;;;;;;;;;;;4.80;99.90;;;;;;5070130;28;19912;-62
2023/01/21 09:59:37;;;;;;;;;;;4.80;99.90;;;;;;5079387;28;19994;-57
2023/01/21 10:02:06;;;;;;;;;;;4.70;99.90;;;;;;5017219;28;19912;-61
2023/01/21 10:04:35;;;;;;;;;;;4.80;99.90;;;;;;5073373;28;20003;-63
2023/01/21 10:07:17;;;;;;;;;;;4.80;99.90;;;;;;5099328;28;19935;-61
2023/01/21 10:10:03;;;;;;;;;;;4.80;99.90;;;;;;5068523;28;19915;-57
2023/01/21 10:12:47;;;;;;;;;;;4.80;99.90;;;;;;5069542;28;20346;-60
2023/01/21 10:15:29;;;;;;;;;;;4.90;99.90;;;;;;5098567;28;19912;-61
2023/01/21 10:17:57;;;;;;;;;;;4.90;99.90;;;;;;5078795;28;19912;-63
2023/01/21 10:20:31;;;;;;;;;;;5.00;99.90;;;;;;5076499;28;19916;-60
2023/01/21 10:23:06;;;;;;;;;;;5.00;99.90;;;;;;5083399;28;19912;-62
2023/01/21 10:25:38;;;;;;;;;;;5.10;99.90;;;;;;5095516;28;19924;-61
2023/01/21 10:28:10;;;;;;;;;;;5.10;99.90;;;;;;5099214;28;19919;-64
2023/01/21 10:30:40;;;;;;;;;;;5.20;99.90;;;;;;5104603;28;19923;-63
2023/01/21 10:33:15;;;;;;;;;;;5.30;99.90;;;;;;5056998;28;19931;-60
2023/01/21 10:35:52;;;;;;;;;;;5.40;99.90;;;;;;5085221;28;20284;-60
2023/01/21 10:38:18;;;;;;;;;;;5.40;99.90;;;;;;5083424;28;20107;-61
2023/01/21 10:41:05;;;;;;;;;;;5.50;99.90;;;;;;5077040;28;20539;-59
2023/01/21 10:43:43;;;;;;;;;;;5.60;99.90;;;;;;5072587;28;19920;-62
2023/01/21 10:46:15;;;;;;;;;;;5.70;99.90;;;;;;5098184;28;19912;-58
2023/01/21 10:49:00;;;;;;;;;;;5.80;99.90;;;;;;5078343;28;20290;-60
2023/01/21 10:51:31;;;;;;;;;;;5.80;99.90;;;;;;5108786;28;19964;-61
2023/01/21 10:54:12;;;;;;;;;;;5.90;99.90;;;;;;5102431;28;20007;-62
2023/01/21 10:56:38;;;;;;;;;;;6.00;99.90;;;;;;5090014;28;19920;-63
2023/01/21 10:59:09;;;;;;;;;;;6.00;99.90;;;;;;5095106;28;19932;-64
2023/01/21 11:01:36;;;;;;;;;;;6.00;99.90;;;;;;5083366;28;19932;-63
2023/01/21 11:04:13;;;;;;;;;;;6.00;99.90;;;;;;5090500;28;20293;-65
2023/01/21 11:06:39;;;;;;;;;;;6.00;99.90;;;;;;5071150;28;20000;-63
2023/01/21 11:09:06;;;;;;;;;;;6.00;99.90;;;;;;5096194;28;19997;-64
2023/01/21 11:11:34;;;;;;;;;;;6.00;99.90;;;;;;5104728;28;19914;-64
2023/01/21 11:14:00;;;;;;;;;;;6.00;99.90;;;;;;5092671;28;20374;-66
2023/01/21 11:16:41;;;;;;;;;;;6.00;99.90;;;;;;5109666;28;19959;-61
2023/01/21 11:19:09;;;;;;;;;;;5.90;99.90;;;;;;5092956;28;19916;-65
2023/01/21 11:21:36;;;;;;;;;;;5.90;99.90;;;;;;5104479;28;20411;-64
2023/01/21 11:24:03;;;;;;;;;;;6.00;99.90;;;;;;5102893;28;20071;-62
2023/01/21 11:26:33;;;;;;;;;;;6.20;99.90;;;;;;5107828;28;19908;-66
2023/01/21 11:29:15;;;;;;;;;;;6.20;99.90;;;;;;5100631;28;19916;-65
2023/01/21 11:31:42;;;;;;;;;;;6.10;99.90;;;;;;5098832;28;20002;-64
2023/01/21 11:34:19;;;;;;;;;;;6.20;99.90;;;;;;5104221;28;19919;-63
2023/01/21 11:36:54;;;;;;;;;;;6.20;99.90;;;;;;5105299;28;20415;-65
2023/01/21 11:39:21;;;;;;;;;;;6.30;99.90;;;;;;5105332;28;20397;-66
2023/01/21 11:41:51;;;;;;;;;;;6.30;99.90;;;;;;5094533;28;20315;-64
2023/01/21 11:44:17;;;;;;;;;;;6.30;99.90;;;;;;5082147;28;19916;-64
2023/01/21 11:46:43;;;;;;;;;;;6.20;99.90;;;;;;5084317;28;19951;-63
2023/01/21 11:49:09;;;;;;;;;;;6.20;99.90;;;;;;5098503;28;20023;-66
2023/01/21 11:51:36;;;;;;;;;;;6.20;99.90;;;;;;5085318;28;19923;-65
2023/01/21 11:54:11;;;;;;;;;;;6.20;99.90;;;;;;5097510;28;19955;-65
2023/01/21 11:56:37;;;;;;;;;;;6.20;99.90;;;;;;5086564;28;19990;-66
2023/01/21 11:59:10;;;;;;;;;;;6.10;99.90;;;;;;5069426;28;21378;-66
2023/01/21 12:01:35;;;;;;;;;;;6.10;99.90;;;;;;5094152;28;19964;-64
2023/01/21 12:04:01;;;;;;;;;;;6.10;99.90;;;;;;5074575;28;19912;-67
2023/01/21 12:06:30;;;;;;;;;;;6.20;99.90;;;;;;5090547;28;19916;-66
2023/01/21 12:08:59;;;;;;;;;;;6.20;99.90;;;;;;5069066;28;20000;-64
2023/01/21 12:11:26;;;;;;;;;;;6.30;99.90;;;;;;5061662;28;19941;-66
2023/01/21 12:14:11;;;;;;;;;;;6.40;99.90;;;;;;5070691;28;19912;-66
2023/01/21 12:16:39;;;;;;;;;;;6.40;99.90;;;;;;5080931;28;19921;-66
2023/01/21 12:19:05;;;;;;;;;;;6.40;99.90;;;;;;5084708;28;19958;-65
2023/01/21 12:21:50;;;;;;;;;;;6.40;99.90;;;;;;5084177;28;20007;-64
2023/01/21 12:24:18;;;;;;;;;;;6.30;99.90;;;;;;5099453;28;19947;-65
2023/01/21 12:26:45;;;;;;;;;;;6.30;99.90;;;;;;5084848;28;20401;-66
2023/01/21 12:29:29;;;;;;;;;;;6.30;99.90;;;;;;5087313;28;20427;-62
2023/01/21 12:32:03;;;;;;;;;;;6.30;99.90;;;;;;5084190;28;19912;-64
2023/01/21 12:34:32;;;;;;;;;;;6.30;99.90;;;;;;5062781;28;19935;-64
2023/01/21 12:37:01;;;;;;;;;;;6.20;99.90;;;;;;5086193;28;19999;-66
2023/01/21 12:39:35;;;;;;;;;;;6.20;99.90;;;;;;5091150;28;19962;-63
2023/01/21 12:42:13;;;;;;;;;;;6.20;99.90;;;;;;5092008;28;19909;-65
2023/01/21 12:44:51;;;;;;;;;;;6.00;99.90;;;;;;5082827;28;19912;-64
2023/01/21 12:47:40;;;;;;;;;;;6.00;99.90;;;;;;5068792;28;19923;-64
2023/01/21 12:50:24;;;;;;;;;;;6.00;99.90;;;;;;5090354;28;19924;-66
2023/01/21 12:53:17;;;;;;;;;;;6.00;99.90;;;;;;5104017;28;20002;-66
2023/01/21 12:55:56;;;;;;;;;;;6.10;99.90;;;;;;5067815;28;19912;-64
2023/01/21 12:58:24;;;;;;;;;;;6.00;99.90;;;;;;5071004;28;20384;-65
2023/01/21 13:00:51;;;;;;;;;;;6.00;99.90;;;;;;5082131;28;19993;-67
2023/01/21 13:03:49;;;;;;;;;;;6.10;99.90;;;;;;5089360;28;20438;-66
2023/01/21 13:06:20;;;;;;;;;;;6.10;99.90;;;;;;5038960;28;19971;-65
2023/01/21 13:09:09;;;;;;;;;;;6.10;99.90;;;;;;5092942;28;19912;-67
2023/01/21 13:11:37;;;;;;;;;;;6.10;99.90;;;;;;5084757;28;19924;-66
2023/01/21 13:14:06;;;;;;;;;;;6.20;99.90;;;;;;5073855;28;19913;-64
2023/01/21 13:16:33;;;;;;;;;;;6.20;99.90;;;;;;5082743;28;20057;-67
2023/01/21 13:18:59;;;;;;;;;;;6.30;99.90;;;;;;5063856;28;19908;-63
2023/01/21 13:21:31;;;;;;;;;;;6.20;99.90;;;;;;5064174;28;19922;-68
2023/01/21 13:24:15;;;;;;;;;;;6.10;99.90;;;;;;5081842;28;19916;-65
2023/01/21 13:26:53;;;;;;;;;;;6.20;99.90;;;;;;5083957;28;20402;-65
2023/01/21 13:29:37;;;;;;;;;;;6.20;99.90;;;;;;5087952;28;19908;-64
2023/01/21 13:32:20;;;;;;;;;;;6.10;99.90;;;;;;5092046;28;19916;-66
2023/01/21 13:34:49;;;;;;;;;;;6.20;99.90;;;;;;5083541;28;19961;-65
2023/01/21 13:37:14;;;;;;;;;;;6.30;99.90;;;;;;5087124;28;20340;-64
2023/01/21 13:39:48;;;;;;;;;;;6.30;99.90;;;;;;5068047;28;19912;-65
2023/01/21 13:42:16;;;;;;;;;;;6.20;99.90;;;;;;5083700;28;19976;-66
2023/01/21 13:45:04;;;;;;;;;;;6.20;99.90;;;;;;5084536;28;20331;-65
2023/01/21 13:47:52;;;;;;;;;;;6.10;99.90;;;;;;5084033;28;19919;-66
2023/01/21 13:50:38;;;;;;;;;;;6.00;99.90;;;;;;5089072;28;19970;-66
2023/01/21 13:53:24;;;;;;;;;;;6.00;99.90;;;;;;5095557;28;19974;-65
2023/01/21 13:55:49;;;;;;;;;;;6.10;99.90;;;;;;5076951;28;19911;-64
2023/01/21 13:58:20;;;;;;;;;;;6.10;99.90;;;;;;5094634;28;20563;-65
2023/01/21 14:00:56;;;;;;;;;;;6.10;99.90;;;;;;5092139;28;19912;-64
2023/01/21 14:03:30;;;;;;;;;;;6.10;99.90;;;;;;5093505;28;19912;-63
2023/01/21 14:06:10;;;;;;;;;;;6.10;99.90;;;;;;5071622;28;19912;-67
2023/01/21 14:08:42;;;;;;;;;;;6.00;99.90;;;;;;5067265;28;20057;-65
2023/01/21 14:11:14;;;;;;;;;;;6.00;99.90;;;;;;5072195;28;20274;-68
2023/01/21 14:14:04;;;;;;;;;;;6.00;99.90;;;;;;5102342;28;20366;-65
2023/01/21 14:16:42;;;;;;;;;;;6.00;99.90;;;;;;5094525;28;19969;-67
2023/01/21 14:19:07;;;;;;;;;;;5.90;99.90;;;;;;5069632;28;19912;-67
2023/01/21 14:21:33;;;;;;;;;;;5.80;99.90;;;;;;5109970;28;19965;-66
2023/01/21 14:24:13;;;;;;;;;;;5.80;99.90;;;;;;5112486;28;19911;-66
2023/01/21 14:26:49;;;;;;;;;;;5.80;99.90;;;;;;5093649;28;20462;-64
2023/01/21 14:29:27;;;;;;;;;;;5.70;99.90;;;;;;5087651;28;19920;-65
2023/01/21 14:31:56;;;;;;;;;;;5.70;99.90;;;;;;5085851;28;19924;-67
2023/01/21 14:34:30;;;;;;;;;;;5.80;99.90;;;;;;5090365;28;19919;-66
2023/01/21 14:37:05;;;;;;;;;;;5.80;99.90;;;;;;5089915;28;19907;-65
2023/01/21 14:39:45;;;;;;;;;;;5.60;99.90;;;;;;5102560;28;19919;-66
2023/01/21 14:42:13;;;;;;;;;;;5.60;99.90;;;;;;5090676;28;19999;-67
2023/01/21 14:44:40;;;;;;;;;;;5.60;99.90;;;;;;5073507;28;19908;-65
2023/01/21 14:47:24;;;;;;;;;;;5.60;99.90;;;;;;5096395;28;19923;-64
2023/01/21 14:49:51;;;;;;;;;;;5.60;99.90;;;;;;5095147;28;19918;-64
2023/01/21 14:52:18;;;;;;;;;;;5.60;99.90;;;;;;5095191;28;19952;-63